sensor_id;sensor_type;location;lat;lon;timestamp;temperature;humidity
25280;DHT22;13225;47.804;12.116;2023-12-22T00:00:44;7.60;99.90
25280;DHT22;13225;47.804;12.116;2023-12-22T00:03:13;7.50;99.90
25280;DHT22;13225;47.804;12.116;2023-12-22T00:05:39;7.50;99.90
25280;DHT22;13225;47.804;12.116;2023-12-22T00:08:05;7.40;99.90
25280;DHT22;13225;47.804;12.116;2023-12-22T00:10:31;7.40;99.90
25280;DHT22;13225;47.804;12.116;2023-12-22T00:12:56;6.90;99.90
25280;DHT22;13225;47.804;12.116;2023-12-22T00:15:22;6.90;99.90
25280;DHT22;13225;47.804;12.116;2023-12-22T00:17:47;6.70;99.90
25280;DHT22;13225;47.804;12.116;2023-12-22T00:20:13;6.50;99.90
25280;DHT22;13225;47.804;12.116;2023-12-22T00:22:40;6.50;99.90
25280;DHT22;13225;47.804;12.116;2023-12-22T00:25:05;6.40;99.90
25280;DHT22;13225;47.804;12.116;2023-12-22T00:27:33;6.40;99.90
25280;DHT22;13225;47.804;12.116;2023-12-22T00:29:58;6.30;99.90
25280;DHT22;13225;47.804;12.116;2023-12-22T00:32:24;6.30;99.90
25280;DHT22;13225;47.804;12.116;2023-12-22T00:34:50;6.40;99.90
25280;DHT22;13225;47.804;12.116;2023-12-22T00:37:16;6.30;99.90
25280;DHT22;13225;47.804;12.116;2023-12-22T00:39:41;6.20;99.90
25280;DHT22;13225;47.804;12.116;2023-12-22T00:42:07;6.20;99.90
25280;DHT22;13225;47.804;12.116;2023-12-22T00:44:32;6.20;99.90
25280;DHT22;13225;47.804;12.116;2023-12-22T00:46:58;5.70;99.90
25280;DHT22;13225;47.804;12.116;2023-12-22T00:49:24;5.30;99.90
25280;DHT22;13225;47.804;12.116;2023-12-22T00:51:49;4.40;99.90
25280;DHT22;13225;47.804;12.116;2023-12-22T00:54:15;3.90;99.90
25280;DHT22;13225;47.804;12.116;2023-12-22T00:56:40;3.50;99.90
25280;DHT22;13225;47.804;12.116;2023-12-22T00:59:06;3.20;99.90
25280;DHT22;13225;47.804;12.116;2023-12-22T01:01:32;2.90;99.90
25280;DHT22;13225;47.804;12.116;2023-12-22T01:03:57;2.70;99.90
25280;DHT22;13225;47.804;12.116;2023-12-22T01:06:23;2.50;99.90
25280;DHT22;13225;47.804;12.116;2023-12-22T01:08:48;2.40;99.90
25280;DHT22;13225;47.804;12.116;2023-12-22T01:11:16;2.30;99.90
25280;DHT22;13225;47.804;12.116;2023-12-22T01:13:42;2.30;99.90
25280;DHT22;13225;47.804;12.116;2023-12-22T01:16:08;2.30;99.90
25280;DHT22;13225;47.804;12.116;2023-12-22T01:18:33;2.40;99.90
25280;DHT22;13225;47.804;12.116;2023-12-22T01:20:59;2.40;99.90
25280;DHT22;13225;47.804;12.116;2023-12-22T01:23:25;2.40;99.90
25280;DHT22;13225;47.804;12.116;2023-12-22T01:25:51;2.40;99.90
25280;DHT22;13225;47.804;12.116;2023-12-22T01:28:16;2.50;99.90
25280;DHT22;13225;47.804;12.116;2023-12-22T01:30:42;2.50;99.90
25280;DHT22;13225;47.804;12.116;2023-12-22T01:33:07;2.50;99.90
25280;DHT22;13225;47.804;12.116;2023-12-22T01:35:33;2.40;99.90
25280;DHT22;13225;47.804;12.116;2023-12-22T01:37:58;2.40;99.90
25280;DHT22;13225;47.804;12.116;2023-12-22T01:40:24;2.30;99.90
25280;DHT22;13225;47.804;12.116;2023-12-22T01:42:50;2.30;99.90
25280;DHT22;13225;47.804;12.116;2023-12-22T01:45:15;2.30;99.90
25280;DHT22;13225;47.804;12.116;2023-12-22T01:47:41;2.30;99.90
25280;DHT22;13225;47.804;12.116;2023-12-22T01:50:07;2.30;99.90
25280;DHT22;13225;47.804;12.116;2023-12-22T01:52:36;2.30;99.90
25280;DHT22;13225;47.804;12.116;2023-12-22T01:55:02;2.20;99.90
25280;DHT22;13225;47.804;12.116;2023-12-22T01:57:28;2.20;99.90
25280;DHT22;13225;47.804;12.116;2023-12-22T01:59:56;2.20;99.90
25280;DHT22;13225;47.804;12.116;2023-12-22T02:02:22;2.10;99.90
25280;DHT22;13225;47.804;12.116;2023-12-22T02:04:48;2.10;99.90
25280;DHT22;13225;47.804;12.116;2023-12-22T02:07:14;2.10;99.90
25280;DHT22;13225;47.804;12.116;2023-12-22T02:09:40;2.10;99.90
25280;DHT22;13225;47.804;12.116;2023-12-22T02:12:06;2.10;99.90
25280;DHT22;13225;47.804;12.116;2023-12-22T02:14:31;2.10;99.90
25280;DHT22;13225;47.804;12.116;2023-12-22T02:17:18;2.20;99.90
25280;DHT22;13225;47.804;12.116;2023-12-22T02:19:48;2.30;99.90
25280;DHT22;13225;47.804;12.116;2023-12-22T02:22:14;2.30;99.90
25280;DHT22;13225;47.804;12.116;2023-12-22T02:24:40;2.30;99.90
25280;DHT22;13225;47.804;12.116;2023-12-22T02:29:57;2.30;99.90
25280;DHT22;13225;47.804;12.116;2023-12-22T02:32:30;2.30;99.90
25280;DHT22;13225;47.804;12.116;2023-12-22T02:34:56;2.30;99.90
25280;DHT22;13225;47.804;12.116;2023-12-22T02:37:24;2.40;99.90
25280;DHT22;13225;47.804;12.116;2023-12-22T02:39:51;2.40;99.90
25280;DHT22;13225;47.804;12.116;2023-12-22T02:42:18;2.40;99.90
25280;DHT22;13225;47.804;12.116;2023-12-22T02:44:45;2.50;99.90
25280;DHT22;13225;47.804;12.116;2023-12-22T02:47:11;2.50;99.90
25280;DHT22;13225;47.804;12.116;2023-12-22T02:49:36;2.60;99.90
25280;DHT22;13225;47.804;12.116;2023-12-22T02:52:02;2.60;99.90
25280;DHT22;13225;47.804;12.116;2023-12-22T02:54:28;2.60;99.90
25280;DHT22;13225;47.804;12.116;2023-12-22T02:56:55;2.60;99.90
25280;DHT22;13225;47.804;12.116;2023-12-22T02:59:20;2.60;99.90
25280;DHT22;13225;47.804;12.116;2023-12-22T03:01:46;2.60;99.90
25280;DHT22;13225;47.804;12.116;2023-12-22T03:04:12;2.60;99.90
25280;DHT22;13225;47.804;12.116;2023-12-22T03:06:37;2.50;99.90
25280;DHT22;13225;47.804;12.116;2023-12-22T03:09:03;2.50;99.90
25280;DHT22;13225;47.804;12.116;2023-12-22T03:11:29;2.40;99.90
25280;DHT22;13225;47.804;12.116;2023-12-22T03:13:54;2.50;99.90
25280;DHT22;13225;47.804;12.116;2023-12-22T03:16:20;2.60;99.90
25280;DHT22;13225;47.804;12.116;2023-12-22T03:18:45;2.50;99.90
25280;DHT22;13225;47.804;12.116;2023-12-22T03:21:20;2.50;99.90
25280;DHT22;13225;47.804;12.116;2023-12-22T03:23:45;2.60;99.90
25280;DHT22;13225;47.804;12.116;2023-12-22T03:26:11;2.70;99.90
25280;DHT22;13225;47.804;12.116;2023-12-22T03:28:37;2.60;99.90
25280;DHT22;13225;47.804;12.116;2023-12-22T03:31:03;2.60;99.90
25280;DHT22;13225;47.804;12.116;2023-12-22T03:33:29;2.70;99.90
25280;DHT22;13225;47.804;12.116;2023-12-22T03:35:54;2.50;99.90
25280;DHT22;13225;47.804;12.116;2023-12-22T03:38:20;2.40;99.90
25280;DHT22;13225;47.804;12.116;2023-12-22T03:40:46;2.40;99.90
25280;DHT22;13225;47.804;12.116;2023-12-22T03:43:11;2.30;99.90
25280;DHT22;13225;47.804;12.116;2023-12-22T03:45:37;2.20;99.90
25280;DHT22;13225;47.804;12.116;2023-12-22T03:48:02;2.20;99.90
25280;DHT22;13225;47.804;12.116;2023-12-22T03:50:28;2.20;99.90
25280;DHT22;13225;47.804;12.116;2023-12-22T03:52:53;2.20;99.90
25280;DHT22;13225;47.804;12.116;2023-12-22T03:55:19;2.20;99.90
25280;DHT22;13225;47.804;12.116;2023-12-22T03:57:44;2.20;99.90
25280;DHT22;13225;47.804;12.116;2023-12-22T04:00:10;2.20;99.90
25280;DHT22;13225;47.804;12.116;2023-12-22T04:02:36;2.10;99.90
25280;DHT22;13225;47.804;12.116;2023-12-22T04:05:02;2.20;99.90
25280;DHT22;13225;47.804;12.116;2023-12-22T04:07:28;2.20;99.90
25280;DHT22;13225;47.804;12.116;2023-12-22T04:09:53;2.20;99.90
25280;DHT22;13225;47.804;12.116;2023-12-22T04:12:19;2.20;99.90
25280;DHT22;13225;47.804;12.116;2023-12-22T04:14:44;2.20;99.90
25280;DHT22;13225;47.804;12.116;2023-12-22T04:17:10;2.10;99.90
25280;DHT22;13225;47.804;12.116;2023-12-22T04:19:36;2.20;99.90
25280;DHT22;13225;47.804;12.116;2023-12-22T04:22:01;2.20;99.90
25280;DHT22;13225;47.804;12.116;2023-12-22T04:24:28;2.20;99.90
25280;DHT22;13225;47.804;12.116;2023-12-22T04:26:53;2.30;99.90
25280;DHT22;13225;47.804;12.116;2023-12-22T04:29:19;2.30;99.90
25280;DHT22;13225;47.804;12.116;2023-12-22T04:31:44;2.40;99.90
25280;DHT22;13225;47.804;12.116;2023-12-22T04:34:13;2.50;99.90
25280;DHT22;13225;47.804;12.116;2023-12-22T04:36:39;2.50;99.90
25280;DHT22;13225;47.804;12.116;2023-12-22T04:39:04;2.50;99.90
25280;DHT22;13225;47.804;12.116;2023-12-22T04:41:30;2.60;99.90
25280;DHT22;13225;47.804;12.116;2023-12-22T04:43:55;2.60;99.90
25280;DHT22;13225;47.804;12.116;2023-12-22T04:46:21;3.50;99.90
25280;DHT22;13225;47.804;12.116;2023-12-22T04:48:46;4.00;99.90
25280;DHT22;13225;47.804;12.116;2023-12-22T04:51:12;4.40;99.90
25280;DHT22;13225;47.804;12.116;2023-12-22T04:53:37;4.60;99.90
25280;DHT22;13225;47.804;12.116;2023-12-22T04:56:03;4.90;99.90
25280;DHT22;13225;47.804;12.116;2023-12-22T04:58:29;4.90;99.90
25280;DHT22;13225;47.804;12.116;2023-12-22T05:00:54;4.90;99.90
25280;DHT22;13225;47.804;12.116;2023-12-22T05:03:20;5.00;99.90
25280;DHT22;13225;47.804;12.116;2023-12-22T05:05:46;5.00;99.90
25280;DHT22;13225;47.804;12.116;2023-12-22T05:08:11;5.00;99.90
25280;DHT22;13225;47.804;12.116;2023-12-22T05:10:37;5.00;99.90
25280;DHT22;13225;47.804;12.116;2023-12-22T05:13:02;5.00;99.90
25280;DHT22;13225;47.804;12.116;2023-12-22T05:15:29;4.90;99.90
25280;DHT22;13225;47.804;12.116;2023-12-22T05:17:54;4.80;99.90
25280;DHT22;13225;47.804;12.116;2023-12-22T05:20:20;4.80;99.90
25280;DHT22;13225;47.804;12.116;2023-12-22T05:22:45;4.80;99.90
25280;DHT22;13225;47.804;12.116;2023-12-22T05:25:13;4.90;99.90
25280;DHT22;13225;47.804;12.116;2023-12-22T05:27:39;5.00;99.90
25280;DHT22;13225;47.804;12.116;2023-12-22T05:30:05;5.10;99.90
25280;DHT22;13225;47.804;12.116;2023-12-22T05:32:31;5.10;99.90
25280;DHT22;13225;47.804;12.116;2023-12-22T05:34:56;5.20;99.90
25280;DHT22;13225;47.804;12.116;2023-12-22T05:37:22;5.40;99.90
25280;DHT22;13225;47.804;12.116;2023-12-22T05:39:47;5.70;99.90
25280;DHT22;13225;47.804;12.116;2023-12-22T05:42:13;5.60;99.90
25280;DHT22;13225;47.804;12.116;2023-12-22T05:44:38;5.70;99.90
25280;DHT22;13225;47.804;12.116;2023-12-22T05:47:05;5.80;99.90
25280;DHT22;13225;47.804;12.116;2023-12-22T05:49:30;5.80;99.90
25280;DHT22;13225;47.804;12.116;2023-12-22T05:51:56;5.90;99.90
25280;DHT22;13225;47.804;12.116;2023-12-22T05:54:22;6.20;99.90
25280;DHT22;13225;47.804;12.116;2023-12-22T05:56:48;6.20;99.90
25280;DHT22;13225;47.804;12.116;2023-12-22T05:59:18;6.10;99.90
25280;DHT22;13225;47.804;12.116;2023-12-22T06:01:43;6.20;99.90
25280;DHT22;13225;47.804;12.116;2023-12-22T06:04:09;6.10;99.90
25280;DHT22;13225;47.804;12.116;2023-12-22T06:06:36;6.10;99.90
25280;DHT22;13225;47.804;12.116;2023-12-22T06:09:02;6.30;99.90
25280;DHT22;13225;47.804;12.116;2023-12-22T06:11:27;6.30;99.90
25280;DHT22;13225;47.804;12.116;2023-12-22T06:13:53;6.10;99.90
25280;DHT22;13225;47.804;12.116;2023-12-22T06:16:18;6.00;99.90
25280;DHT22;13225;47.804;12.116;2023-12-22T06:18:44;5.90;99.90
25280;DHT22;13225;47.804;12.116;2023-12-22T06:21:10;5.80;99.90
25280;DHT22;13225;47.804;12.116;2023-12-22T06:23:36;5.70;99.90
25280;DHT22;13225;47.804;12.116;2023-12-22T06:26:07;5.70;99.90
25280;DHT22;13225;47.804;12.116;2023-12-22T06:28:33;5.60;99.90
25280;DHT22;13225;47.804;12.116;2023-12-22T06:30:58;5.60;99.90
25280;DHT22;13225;47.804;12.116;2023-12-22T06:33:24;5.50;99.90
25280;DHT22;13225;47.804;12.116;2023-12-22T06:35:49;5.60;99.90
25280;DHT22;13225;47.804;12.116;2023-12-22T06:38:19;5.60;99.90
25280;DHT22;13225;47.804;12.116;2023-12-22T06:40:44;5.50;99.90
25280;DHT22;13225;47.804;12.116;2023-12-22T06:43:12;5.60;99.90
25280;DHT22;13225;47.804;12.116;2023-12-22T06:45:38;5.60;99.90
25280;DHT22;13225;47.804;12.116;2023-12-22T06:48:05;5.60;99.90
25280;DHT22;13225;47.804;12.116;2023-12-22T06:50:31;5.60;99.90
25280;DHT22;13225;47.804;12.116;2023-12-22T06:52:57;5.90;99.90
25280;DHT22;13225;47.804;12.116;2023-12-22T06:55:23;5.80;99.90
25280;DHT22;13225;47.804;12.116;2023-12-22T06:57:49;5.90;99.90
25280;DHT22;13225;47.804;12.116;2023-12-22T07:00:15;5.80;99.90
25280;DHT22;13225;47.804;12.116;2023-12-22T07:02:41;5.80;99.90
25280;DHT22;13225;47.804;12.116;2023-12-22T07:07:36;5.80;99.90
25280;DHT22;13225;47.804;12.116;2023-12-22T07:10:02;6.00;99.90
25280;DHT22;13225;47.804;12.116;2023-12-22T07:12:27;5.90;99.90
25280;DHT22;13225;47.804;12.116;2023-12-22T07:14:53;6.10;99.90
25280;DHT22;13225;47.804;12.116;2023-12-22T07:17:19;6.10;99.90
25280;DHT22;13225;47.804;12.116;2023-12-22T07:19:44;6.30;99.90
25280;DHT22;13225;47.804;12.116;2023-12-22T07:22:10;6.30;99.90
25280;DHT22;13225;47.804;12.116;2023-12-22T07:24:36;6.30;99.90
25280;DHT22;13225;47.804;12.116;2023-12-22T07:27:01;6.30;99.90
25280;DHT22;13225;47.804;12.116;2023-12-22T07:29:30;6.30;99.90
25280;DHT22;13225;47.804;12.116;2023-12-22T07:31:55;6.40;99.90
25280;DHT22;13225;47.804;12.116;2023-12-22T07:34:21;6.30;99.90
25280;DHT22;13225;47.804;12.116;2023-12-22T07:36:47;6.40;99.90
25280;DHT22;13225;47.804;12.116;2023-12-22T07:39:13;6.40;99.90
25280;DHT22;13225;47.804;12.116;2023-12-22T07:41:39;6.40;99.90
25280;DHT22;13225;47.804;12.116;2023-12-22T07:44:05;6.40;99.90
25280;DHT22;13225;47.804;12.116;2023-12-22T07:46:31;6.30;99.90
25280;DHT22;13225;47.804;12.116;2023-12-22T07:48:56;6.30;99.90
25280;DHT22;13225;47.804;12.116;2023-12-22T07:51:22;6.20;99.90
25280;DHT22;13225;47.804;12.116;2023-12-22T07:53:47;6.20;99.90
25280;DHT22;13225;47.804;12.116;2023-12-22T07:56:13;6.00;99.90
25280;DHT22;13225;47.804;12.116;2023-12-22T07:58:39;5.90;99.90
25280;DHT22;13225;47.804;12.116;2023-12-22T08:01:04;5.80;99.90
25280;DHT22;13225;47.804;12.116;2023-12-22T08:03:31;5.80;99.90
25280;DHT22;13225;47.804;12.116;2023-12-22T08:05:57;5.70;99.90
25280;DHT22;13225;47.804;12.116;2023-12-22T08:08:23;5.70;99.90
25280;DHT22;13225;47.804;12.116;2023-12-22T08:10:49;5.60;99.90
25280;DHT22;13225;47.804;12.116;2023-12-22T08:13:14;6.00;99.90
25280;DHT22;13225;47.804;12.116;2023-12-22T08:15:40;5.90;99.90
25280;DHT22;13225;47.804;12.116;2023-12-22T08:18:06;5.90;99.90
25280;DHT22;13225;47.804;12.116;2023-12-22T08:20:32;6.00;99.90
25280;DHT22;13225;47.804;12.116;2023-12-22T08:22:57;6.10;99.90
25280;DHT22;13225;47.804;12.116;2023-12-22T08:25:23;6.00;99.90
25280;DHT22;13225;47.804;12.116;2023-12-22T08:27:49;6.10;99.90
25280;DHT22;13225;47.804;12.116;2023-12-22T08:30:14;6.20;99.90
25280;DHT22;13225;47.804;12.116;2023-12-22T08:32:40;6.30;99.90
25280;DHT22;13225;47.804;12.116;2023-12-22T08:35:06;6.30;99.90
25280;DHT22;13225;47.804;12.116;2023-12-22T08:37:32;6.40;99.90
25280;DHT22;13225;47.804;12.116;2023-12-22T08:39:57;6.50;99.90
25280;DHT22;13225;47.804;12.116;2023-12-22T08:42:24;6.50;99.90
25280;DHT22;13225;47.804;12.116;2023-12-22T08:44:50;6.50;99.90
25280;DHT22;13225;47.804;12.116;2023-12-22T08:47:16;6.60;99.90
25280;DHT22;13225;47.804;12.116;2023-12-22T08:49:41;6.70;99.90
25280;DHT22;13225;47.804;12.116;2023-12-22T08:52:07;6.80;99.90
25280;DHT22;13225;47.804;12.116;2023-12-22T08:54:33;6.70;99.90
25280;DHT22;13225;47.804;12.116;2023-12-22T08:57:04;6.80;99.90
25280;DHT22;13225;47.804;12.116;2023-12-22T08:59:30;6.70;99.90
25280;DHT22;13225;47.804;12.116;2023-12-22T09:01:55;6.50;99.90
25280;DHT22;13225;47.804;12.116;2023-12-22T09:04:21;6.40;99.90
25280;DHT22;13225;47.804;12.116;2023-12-22T09:06:49;6.30;99.90
25280;DHT22;13225;47.804;12.116;2023-12-22T09:09:14;6.10;99.90
25280;DHT22;13225;47.804;12.116;2023-12-22T09:11:40;6.00;99.90
25280;DHT22;13225;47.804;12.116;2023-12-22T09:14:06;5.90;99.90
25280;DHT22;13225;47.804;12.116;2023-12-22T09:16:35;5.70;99.90
25280;DHT22;13225;47.804;12.116;2023-12-22T09:19:02;5.80;99.90
25280;DHT22;13225;47.804;12.116;2023-12-22T09:21:28;5.80;99.90
25280;DHT22;13225;47.804;12.116;2023-12-22T09:23:53;5.70;99.90
25280;DHT22;13225;47.804;12.116;2023-12-22T09:26:19;5.80;99.90
25280;DHT22;13225;47.804;12.116;2023-12-22T09:28:45;5.80;99.90
25280;DHT22;13225;47.804;12.116;2023-12-22T09:31:11;5.80;99.90
25280;DHT22;13225;47.804;12.116;2023-12-22T09:33:38;5.90;99.90
25280;DHT22;13225;47.804;12.116;2023-12-22T09:36:05;5.90;99.90
25280;DHT22;13225;47.804;12.116;2023-12-22T09:38:31;5.90;99.90
25280;DHT22;13225;47.804;12.116;2023-12-22T09:40:57;6.10;99.90
25280;DHT22;13225;47.804;12.116;2023-12-22T09:43:23;6.40;99.90
25280;DHT22;13225;47.804;12.116;2023-12-22T09:45:49;6.40;99.90
25280;DHT22;13225;47.804;12.116;2023-12-22T09:48:17;6.40;99.90
25280;DHT22;13225;47.804;12.116;2023-12-22T09:50:44;6.50;99.90
25280;DHT22;13225;47.804;12.116;2023-12-22T09:53:12;6.40;99.90
25280;DHT22;13225;47.804;12.116;2023-12-22T09:55:42;6.50;99.90
25280;DHT22;13225;47.804;12.116;2023-12-22T09:58:09;6.60;99.90
25280;DHT22;13225;47.804;12.116;2023-12-22T10:00:36;6.80;99.90
25280;DHT22;13225;47.804;12.116;2023-12-22T10:03:05;6.70;99.90
25280;DHT22;13225;47.804;12.116;2023-12-22T10:05:31;6.70;99.90
25280;DHT22;13225;47.804;12.116;2023-12-22T10:08:00;6.70;99.90
25280;DHT22;13225;47.804;12.116;2023-12-22T10:10:28;6.70;99.90
25280;DHT22;13225;47.804;12.116;2023-12-22T10:12:54;6.60;99.90
25280;DHT22;13225;47.804;12.116;2023-12-22T10:15:21;6.50;99.90
25280;DHT22;13225;47.804;12.116;2023-12-22T10:17:50;6.10;99.90
25280;DHT22;13225;47.804;12.116;2023-12-22T10:20:16;5.70;99.90
25280;DHT22;13225;47.804;12.116;2023-12-22T10:22:41;5.60;99.90
25280;DHT22;13225;47.804;12.116;2023-12-22T10:25:08;5.40;99.90
25280;DHT22;13225;47.804;12.116;2023-12-22T10:27:36;5.20;99.90
25280;DHT22;13225;47.804;12.116;2023-12-22T10:30:03;5.00;99.90
25280;DHT22;13225;47.804;12.116;2023-12-22T10:32:29;5.00;99.90
25280;DHT22;13225;47.804;12.116;2023-12-22T10:34:56;5.00;99.90
25280;DHT22;13225;47.804;12.116;2023-12-22T10:37:24;4.80;99.90
25280;DHT22;13225;47.804;12.116;2023-12-22T10:39:54;4.80;99.90
25280;DHT22;13225;47.804;12.116;2023-12-22T10:42:20;4.70;99.90
25280;DHT22;13225;47.804;12.116;2023-12-22T10:44:46;4.50;99.90
25280;DHT22;13225;47.804;12.116;2023-12-22T10:47:13;4.50;99.90
25280;DHT22;13225;47.804;12.116;2023-12-22T10:49:39;4.40;99.90
25280;DHT22;13225;47.804;12.116;2023-12-22T10:52:05;4.30;99.90
25280;DHT22;13225;47.804;12.116;2023-12-22T10:54:30;4.20;99.90
25280;DHT22;13225;47.804;12.116;2023-12-22T10:56:59;4.20;99.90
25280;DHT22;13225;47.804;12.116;2023-12-22T10:59:28;4.20;99.90
25280;DHT22;13225;47.804;12.116;2023-12-22T11:01:57;4.10;99.90
25280;DHT22;13225;47.804;12.116;2023-12-22T11:04:30;4.20;99.90
25280;DHT22;13225;47.804;12.116;2023-12-22T11:07:03;4.10;99.90
25280;DHT22;13225;47.804;12.116;2023-12-22T11:09:32;4.10;99.90
25280;DHT22;13225;47.804;12.116;2023-12-22T11:12:00;4.10;99.90
25280;DHT22;13225;47.804;12.116;2023-12-22T11:14:29;4.20;99.90
25280;DHT22;13225;47.804;12.116;2023-12-22T11:16:56;4.20;99.90
25280;DHT22;13225;47.804;12.116;2023-12-22T11:19:23;4.30;99.90
25280;DHT22;13225;47.804;12.116;2023-12-22T11:21:50;4.40;99.90
25280;DHT22;13225;47.804;12.116;2023-12-22T11:24:16;4.30;99.90
25280;DHT22;13225;47.804;12.116;2023-12-22T11:26:45;4.40;99.90
25280;DHT22;13225;47.804;12.116;2023-12-22T11:29:14;4.40;99.90
25280;DHT22;13225;47.804;12.116;2023-12-22T11:31:40;4.40;99.90
25280;DHT22;13225;47.804;12.116;2023-12-22T11:34:07;4.50;99.90
25280;DHT22;13225;47.804;12.116;2023-12-22T11:36:34;4.70;99.90
25280;DHT22;13225;47.804;12.116;2023-12-22T11:39:02;5.40;99.90
25280;DHT22;13225;47.804;12.116;2023-12-22T11:41:30;5.70;99.90
25280;DHT22;13225;47.804;12.116;2023-12-22T11:43:58;5.90;99.90
25280;DHT22;13225;47.804;12.116;2023-12-22T11:46:24;6.10;99.90
25280;DHT22;13225;47.804;12.116;2023-12-22T11:48:51;6.20;99.90
25280;DHT22;13225;47.804;12.116;2023-12-22T11:51:18;6.20;99.90
25280;DHT22;13225;47.804;12.116;2023-12-22T11:53:44;6.10;99.90
25280;DHT22;13225;47.804;12.116;2023-12-22T11:56:11;6.20;99.90
25280;DHT22;13225;47.804;12.116;2023-12-22T11:58:42;6.20;99.90
25280;DHT22;13225;47.804;12.116;2023-12-22T12:01:10;6.10;99.90
25280;DHT22;13225;47.804;12.116;2023-12-22T12:03:37;6.20;99.90
25280;DHT22;13225;47.804;12.116;2023-12-22T12:08:50;6.10;99.90
25280;DHT22;13225;47.804;12.116;2023-12-22T12:11:17;6.10;99.90
25280;DHT22;13225;47.804;12.116;2023-12-22T12:13:45;6.10;99.90
25280;DHT22;13225;47.804;12.116;2023-12-22T12:16:12;6.20;99.90
25280;DHT22;13225;47.804;12.116;2023-12-22T12:18:39;6.20;99.90
25280;DHT22;13225;47.804;12.116;2023-12-22T12:21:10;6.20;99.90
25280;DHT22;13225;47.804;12.116;2023-12-22T12:23:36;6.30;99.90
25280;DHT22;13225;47.804;12.116;2023-12-22T12:26:02;6.30;99.90
25280;DHT22;13225;47.804;12.116;2023-12-22T12:28:32;6.30;99.90
25280;DHT22;13225;47.804;12.116;2023-12-22T12:31:03;6.40;99.90
25280;DHT22;13225;47.804;12.116;2023-12-22T12:33:29;6.30;99.90
25280;DHT22;13225;47.804;12.116;2023-12-22T12:36:00;6.30;99.90
25280;DHT22;13225;47.804;12.116;2023-12-22T12:38:42;6.30;99.90
25280;DHT22;13225;47.804;12.116;2023-12-22T12:41:09;6.30;99.90
25280;DHT22;13225;47.804;12.116;2023-12-22T12:43:36;6.30;99.90
25280;DHT22;13225;47.804;12.116;2023-12-22T12:46:06;6.30;99.90
25280;DHT22;13225;47.804;12.116;2023-12-22T12:48:31;6.20;99.90
25280;DHT22;13225;47.804;12.116;2023-12-22T12:51:04;6.20;99.90
25280;DHT22;13225;47.804;12.116;2023-12-22T12:53:33;6.20;99.90
25280;DHT22;13225;47.804;12.116;2023-12-22T12:56:01;6.20;99.90
25280;DHT22;13225;47.804;12.116;2023-12-22T12:58:31;6.30;99.90
25280;DHT22;13225;47.804;12.116;2023-12-22T13:01:08;6.30;99.90
25280;DHT22;13225;47.804;12.116;2023-12-22T13:03:48;6.30;99.90
25280;DHT22;13225;47.804;12.116;2023-12-22T13:06:16;6.30;99.90
25280;DHT22;13225;47.804;12.116;2023-12-22T13:08:50;6.40;99.90
25280;DHT22;13225;47.804;12.116;2023-12-22T13:11:29;6.30;99.90
25280;DHT22;13225;47.804;12.116;2023-12-22T13:13:56;6.20;99.90
25280;DHT22;13225;47.804;12.116;2023-12-22T13:16:24;6.30;99.90
25280;DHT22;13225;47.804;12.116;2023-12-22T13:18:52;6.20;99.90
25280;DHT22;13225;47.804;12.116;2023-12-22T13:21:18;6.30;99.90
25280;DHT22;13225;47.804;12.116;2023-12-22T13:23:44;6.40;99.90
25280;DHT22;13225;47.804;12.116;2023-12-22T13:26:19;6.30;99.90
25280;DHT22;13225;47.804;12.116;2023-12-22T13:28:45;6.10;99.90
25280;DHT22;13225;47.804;12.116;2023-12-22T13:31:11;6.10;99.90
25280;DHT22;13225;47.804;12.116;2023-12-22T13:33:42;6.00;99.90
25280;DHT22;13225;47.804;12.116;2023-12-22T13:36:07;6.00;99.90
25280;DHT22;13225;47.804;12.116;2023-12-22T13:38:33;6.00;99.90
25280;DHT22;13225;47.804;12.116;2023-12-22T13:41:01;5.90;99.90
25280;DHT22;13225;47.804;12.116;2023-12-22T13:43:30;5.90;99.90
25280;DHT22;13225;47.804;12.116;2023-12-22T13:45:56;5.90;99.90
25280;DHT22;13225;47.804;12.116;2023-12-22T13:48:22;5.90;99.90
25280;DHT22;13225;47.804;12.116;2023-12-22T13:50:59;5.90;99.90
25280;DHT22;13225;47.804;12.116;2023-12-22T13:53:25;5.90;99.90
25280;DHT22;13225;47.804;12.116;2023-12-22T13:56:01;6.00;99.90
25280;DHT22;13225;47.804;12.116;2023-12-22T13:58:27;6.00;99.90
25280;DHT22;13225;47.804;12.116;2023-12-22T14:00:53;6.20;99.90
25280;DHT22;13225;47.804;12.116;2023-12-22T14:03:19;6.20;99.90
25280;DHT22;13225;47.804;12.116;2023-12-22T14:05:48;6.10;99.90
25280;DHT22;13225;47.804;12.116;2023-12-22T14:08:15;6.20;99.90
25280;DHT22;13225;47.804;12.116;2023-12-22T14:10:48;6.20;99.90
25280;DHT22;13225;47.804;12.116;2023-12-22T14:13:16;6.10;99.90
25280;DHT22;13225;47.804;12.116;2023-12-22T14:15:42;6.00;99.90
25280;DHT22;13225;47.804;12.116;2023-12-22T14:18:11;6.20;99.90
25280;DHT22;13225;47.804;12.116;2023-12-22T14:20:37;6.20;99.90
25280;DHT22;13225;47.804;12.116;2023-12-22T14:23:02;6.20;99.90
25280;DHT22;13225;47.804;12.116;2023-12-22T14:25:29;6.40;99.90
25280;DHT22;13225;47.804;12.116;2023-12-22T14:27:55;6.40;99.90
25280;DHT22;13225;47.804;12.116;2023-12-22T14:30:25;6.60;99.90
25280;DHT22;13225;47.804;12.116;2023-12-22T14:32:51;6.50;99.90
25280;DHT22;13225;47.804;12.116;2023-12-22T14:35:16;6.60;99.90
25280;DHT22;13225;47.804;12.116;2023-12-22T14:37:42;6.70;99.90
25280;DHT22;13225;47.804;12.116;2023-12-22T14:40:08;6.90;99.90
25280;DHT22;13225;47.804;12.116;2023-12-22T14:42:34;6.90;99.90
25280;DHT22;13225;47.804;12.116;2023-12-22T14:45:00;7.10;99.90
25280;DHT22;13225;47.804;12.116;2023-12-22T14:47:27;7.20;99.90
25280;DHT22;13225;47.804;12.116;2023-12-22T14:49:53;7.10;99.90
25280;DHT22;13225;47.804;12.116;2023-12-22T14:52:18;7.20;99.90
25280;DHT22;13225;47.804;12.116;2023-12-22T14:54:45;7.40;99.90
25280;DHT22;13225;47.804;12.116;2023-12-22T14:57:11;7.20;99.90
25280;DHT22;13225;47.804;12.116;2023-12-22T14:59:37;7.20;99.90
25280;DHT22;13225;47.804;12.116;2023-12-22T15:02:03;7.40;99.90
25280;DHT22;13225;47.804;12.116;2023-12-22T15:04:31;7.60;99.90
25280;DHT22;13225;47.804;12.116;2023-12-22T15:06:57;7.60;99.90
25280;DHT22;13225;47.804;12.116;2023-12-22T15:09:23;7.50;99.90
25280;DHT22;13225;47.804;12.116;2023-12-22T15:11:49;7.40;99.90
25280;DHT22;13225;47.804;12.116;2023-12-22T15:14:17;7.20;99.90
25280;DHT22;13225;47.804;12.116;2023-12-22T15:16:43;7.30;99.90
25280;DHT22;13225;47.804;12.116;2023-12-22T15:19:12;7.50;99.90
25280;DHT22;13225;47.804;12.116;2023-12-22T15:21:38;7.60;99.90
25280;DHT22;13225;47.804;12.116;2023-12-22T15:24:05;7.60;99.90
25280;DHT22;13225;47.804;12.116;2023-12-22T15:26:30;7.60;99.90
25280;DHT22;13225;47.804;12.116;2023-12-22T15:28:58;7.70;99.90
25280;DHT22;13225;47.804;12.116;2023-12-22T15:31:24;7.60;99.90
25280;DHT22;13225;47.804;12.116;2023-12-22T15:33:50;7.50;99.90